Mexico, Missouri
Current Conditions -  °F | °C
As of 5:39 AM on Friday 31 Oct 2014 (Local Time) from KCOU Reporting Station
Overcast Overcast  
Wind Chill: 42°   Ceiling: 2900
Heat Index: 48°   Visibility: 10mi
Dew Point: 39°   Wind: 17mph
Humidity: 71%   Direction: 350°N
Pressure: 30.22"   Gusts: 25mph
Location:  39.17°N, 91.89°W
Report Text: KCOU 311039Z AUTO 35015G22KT 10SM BKN029 OVC060 09/04 A3022 RMK AO2 T00890039
Loading
Personal Weather Stations






























Interactive Weather Map
Tropical Storm Tracking
New forecast layout! Learn more

10-Day Weather Forecast

Advertisements
Track Severe Weather on mobile